Time;durP1;ratioP1;P1;durP2;ratioP2;P2;SDS_P1;SDS_P2;PMS_P1;PMS_P2;Temp;Humidity;BMP_temperature;BMP_pressure;BME280_temperature;BME280_humidity;BME280_pressure;Samples;Min_cycle;Max_cycle;Signal;HPM_P1;HPM_P2
2022/02/04 00:24:44;;;;;;;7.90;3.37;;;;;;;-6.88;76.26;96033.84;1788408;80;21022;-73
2022/02/04 00:27:17;;;;;;;4.33;2.43;;;;;;;-6.89;76.99;96030.41;1788370;80;21526;-73
2022/02/04 00:29:53;;;;;;;4.53;2.67;;;;;;;-6.86;76.94;96028.41;1787411;80;20998;-73
2022/02/04 00:32:09;;;;;;;4.67;2.80;;;;;;;-6.84;77.10;96027.69;1785344;80;21067;-73
2022/02/04 00:34:43;;;;;;;7.50;4.37;;;;;;;-6.75;77.22;96024.34;1788483;80;21099;-73
2022/02/04 00:37:21;;;;;;;9.60;5.23;;;;;;;-6.70;77.21;96023.31;1787058;80;21034;-73
2022/02/04 00:39:42;;;;;;;5.20;2.93;;;;;;;-6.68;76.85;96021.69;1784027;80;20980;-73
2022/02/04 00:42:07;;;;;;;4.47;2.50;;;;;;;-6.67;76.83;96029.02;1786748;80;21480;-73
2022/02/04 00:44:31;;;;;;;6.87;2.83;;;;;;;-6.69;76.42;96025.06;1787439;80;21054;-73
2022/02/04 00:47:10;;;;;;;5.20;2.70;;;;;;;-6.70;76.63;96018.55;1788405;79;20999;-73
2022/02/04 00:54:43;;;;;;;7.50;3.97;;;;;;;-6.75;76.74;96023.47;1788347;80;21022;-73
2022/02/04 01:26:57;;;;;;;3.17;1.53;;;;;;;-6.94;76.47;95989.51;1788305;80;21014;-72
2022/02/04 01:29:29;;;;;;;5.20;1.40;;;;;;;-7.03;76.54;95986.06;1788175;80;21029;-72
2022/02/04 01:31:52;;;;;;;3.97;1.93;;;;;;;-7.02;76.67;95984.37;1787975;80;21501;-73
2022/02/04 01:34:19;;;;;;;3.97;1.80;;;;;;;-7.11;76.80;95977.05;1788384;80;20998;-73
2022/02/04 01:36:46;;;;;;;3.50;1.87;;;;;;;-7.02;77.26;95976.27;1788408;80;21030;-72
2022/02/04 01:39:12;;;;;;;5.53;1.80;;;;;;;-7.00;76.92;95972.52;1788387;79;21018;-72
2022/02/04 01:41:38;;;;;;;4.07;2.10;;;;;;;-7.12;76.39;95975.70;1788350;80;21011;-72
2022/02/04 01:44:24;;;;;;;3.63;2.00;;;;;;;-7.15;76.50;95971.28;1788251;80;21046;-72
2022/02/04 01:46:50;;;;;;;1.77;1.00;;;;;;;-7.19;76.70;95970.21;1788201;80;21079;-72
2022/02/04 01:49:17;;;;;;;3.97;2.07;;;;;;;-7.28;76.58;95971.39;1788217;79;20983;-72
2022/02/04 01:51:46;;;;;;;4.53;1.83;;;;;;;-7.23;76.96;95972.52;1788232;80;21107;-72
2022/02/04 01:54:14;;;;;;;3.97;2.20;;;;;;;-7.14;76.71;95967.03;1788315;80;21046;-72
2022/02/04 01:56:41;;;;;;;4.93;2.00;;;;;;;-7.09;76.78;95969.44;1788165;80;21078;-72
2022/02/04 01:59:08;;;;;;;1.93;1.20;;;;;;;-7.11;76.68;95969.34;1788237;80;20990;-72
2022/02/04 02:01:34;;;;;;;1.90;1.13;;;;;;;-7.05;76.42;95966.26;1788177;80;21023;-72
2022/02/04 02:04:04;;;;;;;2.00;1.20;;;;;;;-7.20;76.11;95970.15;1787992;80;21007;-72
2022/02/04 02:06:49;;;;;;;2.20;1.43;;;;;;;-7.22;76.34;95963.64;1787955;80;21058;-72
2022/02/04 02:09:14;;;;;;;;;;;;;;;-7.19;76.31;95956.52;1790867;80;21489;-72
2022/02/04 02:11:41;;;;;;;3.17;1.93;;;;;;;-7.26;76.12;95956.98;1785498;80;20104;-72
2022/02/04 02:14:11;;;;;;;5.77;3.23;;;;;;;-7.27;76.28;95961.63;1762928;79;21031;-72
2022/02/04 02:17:03;;;;;;;3.23;2.10;;;;;;;-7.28;76.54;95954.34;1760296;81;21035;-72
2022/02/04 02:33:14;;;;;;;2.03;0.90;;;;;;;-7.39;76.21;95954.14;1760512;80;21569;-72
2022/02/04 02:46:21;;;;;;;1.30;0.90;;;;;;;-7.57;77.19;95951.45;1760276;80;21046;-72
2022/02/04 02:54:29;;;;;;;1.33;1.07;;;;;;;-7.52;76.75;95955.55;1730807;83;21069;-72
2022/02/04 02:59:11;;;;;;;1.63;1.00;;;;;;;-7.68;76.56;95955.98;1741866;81;21015;-72
2022/02/04 03:01:36;;;;;;;1.47;0.65;;;;;;;-7.78;75.97;95970.34;1760520;81;21516;-72
2022/02/04 03:04:08;;;;;;;1.63;1.00;;;;;;;-7.74;76.75;95959.45;1760400;81;21063;-72
2022/02/04 03:06:32;;;;;;;1.37;0.97;;;;;;;-7.76;76.94;95961.44;1760093;81;21049;-72
2022/02/04 03:08:58;;;;;;;3.40;1.90;;;;;;;-7.79;76.06;95968.96;1760582;81;21476;-72
2022/02/04 03:11:25;;;;;;;12.27;2.50;;;;;;;-7.93;76.36;95964.35;1760458;80;20971;-72
2022/02/04 03:13:51;;;;;;;2.57;1.20;;;;;;;-7.91;76.48;95961.08;1769756;80;21042;-72
2022/02/04 03:16:18;;;;;;;1.73;1.23;;;;;;;-7.92;76.72;95961.86;1760195;80;20984;-72
2022/02/04 03:18:49;;;;;;;3.13;1.60;;;;;;;-7.95;76.74;95965.53;1760390;81;21003;-72
2022/02/04 03:21:26;;;;;;;4.57;1.80;;;;;;;-7.97;76.37;95967.52;1760193;81;21007;-72
2022/02/04 03:23:54;;;;;;;2.50;1.27;;;;;;;-8.05;76.16;95974.35;1760091;81;21098;-72
2022/02/04 03:26:42;;;;;;;4.57;1.57;;;;;;;-8.11;76.37;95978.25;1760034;81;20963;-72
2022/02/04 03:29:02;;;;;;;1.45;0.80;;;;;;;-8.16;76.71;95978.39;1759774;81;21054;-72
2022/02/04 03:31:33;;;;;;;0.83;0.50;;;;;;;-8.18;76.57;95978.69;1760357;81;20987;-72
2022/02/04 03:33:57;;;;;;;1.80;0.70;;;;;;;-8.12;77.08;95976.06;1760118;81;20995;-72
2022/02/04 03:36:24;;;;;;;1.13;0.60;;;;;;;-8.22;76.44;95984.41;1760514;81;21022;-72
2022/02/04 03:38:50;;;;;;;1.60;0.80;;;;;;;-8.24;76.72;95983.02;1760579;81;21045;-72
2022/02/04 03:41:17;;;;;;;1.23;1.00;;;;;;;-8.14;77.36;95980.61;1760291;81;21039;-72
2022/02/04 03:43:44;;;;;;;1.27;0.70;;;;;;;-8.15;77.38;95978.86;1760082;81;21157;-72
2022/02/04 03:46:11;;;;;;;1.10;0.80;;;;;;;-8.08;76.89;95981.86;1760193;80;21072;-72
2022/02/04 03:48:37;;;;;;;0.97;0.80;;;;;;;-8.00;77.04;95975.03;1760206;81;20976;-72
2022/02/04 03:51:04;;;;;;;2.83;1.90;;;;;;;-8.07;76.31;95980.18;1760316;81;20991;-72
2022/02/04 03:53:30;;;;;;;2.53;1.40;;;;;;;-8.05;76.65;95971.80;1760301;80;21114;-72
2022/02/04 03:55:57;;;;;;;1.27;0.77;;;;;;;-8.08;76.03;95978.43;1760372;81;20963;-72
2022/02/04 03:58:24;;;;;;;1.13;0.90;;;;;;;-8.01;76.72;95972.88;1760347;81;21047;-72
2022/02/04 04:00:50;;;;;;;1.87;1.00;;;;;;;-8.02;75.88;95974.05;1760169;81;20959;-72
2022/02/04 04:03:19;;;;;;;2.33;1.00;;;;;;;-8.00;76.23;95971.19;1760300;81;20987;-72
2022/02/04 04:05:49;;;;;;;2.13;1.17;;;;;;;-7.87;76.72;95970.69;1760468;81;21018;-72
2022/02/04 04:08:16;;;;;;;1.50;0.77;;;;;;;-7.95;76.11;95965.53;1760074;81;21018;-73
2022/02/04 04:10:43;;;;;;;4.37;2.50;;;;;;;-8.03;75.57;95973.17;1760385;80;20994;-72
2022/02/04 04:13:12;;;;;;;1.53;1.00;;;;;;;-8.03;76.13;95968.05;1760064;80;21042;-74
2022/02/04 04:15:39;;;;;;;3.50;2.37;;;;;;;-8.05;75.94;95968.36;1775094;80;20995;-76
2022/02/04 04:18:09;;;;;;;2.30;0.90;;;;;;;-8.02;76.17;95978.77;1788137;79;21501;-78
2022/02/04 04:20:34;;;;;;;1.30;0.97;;;;;;;-8.02;75.99;95976.61;1787895;80;21019;-71
2022/02/04 04:23:01;;;;;;;1.87;0.90;;;;;;;-8.17;75.75;95983.87;1788009;80;21007;-73
2022/02/04 04:25:27;;;;;;;1.27;0.80;;;;;;;-8.23;76.03;95973.70;1787863;80;21030;-78
2022/02/04 04:27:54;;;;;;;0.90;0.63;;;;;;;-8.28;76.18;95980.70;1788232;80;21067;-75
2022/02/04 04:30:23;;;;;;;1.77;0.90;;;;;;;-8.22;76.96;95973.77;1788017;79;20991;-73
2022/02/04 04:32:53;;;;;;;1.30;0.80;;;;;;;-8.25;76.40;95979.99;1788150;80;21002;-73
2022/02/04 04:35:24;;;;;;;1.40;0.87;;;;;;;-8.20;76.69;95986.67;1788146;80;21014;-73
2022/02/04 04:38:06;;;;;;;1.67;1.00;;;;;;;-8.28;76.54;95975.98;1788249;80;21038;-73
2022/02/04 05:29:29;;;;;;;0.80;0.80;;;;;;;-8.27;76.78;95963.66;1760565;80;20980;-74
2022/02/04 05:31:55;;;;;;;2.37;1.17;;;;;;;-8.22;76.94;95955.84;1760272;81;21763;-74
2022/02/04 05:34:22;;;;;;;1.20;0.90;;;;;;;-8.02;77.71;95957.41;1747550;81;20983;-74
2022/02/04 05:36:59;;;;;;;1.80;0.80;;;;;;;-7.84;77.82;95955.52;1760433;81;21473;-74
2022/02/04 05:39:24;;;;;;;3.50;1.47;;;;;;;-7.77;76.71;95952.01;1759650;81;21049;-74
2022/02/04 05:41:48;;;;;;;4.77;1.80;;;;;;;-7.92;76.41;95954.17;1760041;81;21050;-74
2022/02/04 05:44:15;;;;;;;1.73;0.73;;;;;;;-7.96;76.24;95957.38;1760514;81;21058;-74
2022/02/04 05:47:07;;;;;;;0.73;0.60;;;;;;;-7.98;76.41;95960.64;1760259;81;21051;-74
2022/02/04 05:49:31;;;;;;;1.00;0.70;;;;;;;-7.81;77.44;95961.58;1760028;81;21034;-74
2022/02/04 05:52:06;;;;;;;3.00;1.10;;;;;;;-7.65;77.14;95965.11;1760323;81;21058;-74
2022/02/04 05:57:16;;;;;;;;;;;;;;;-7.73;76.34;95968.05;1763247;81;21006;-74
2022/02/04 06:05:10;;;;;;;10.15;3.72;;;;;;;-7.53;76.52;95969.17;1760595;81;21002;-75
2022/02/04 06:07:34;;;;;;;2.67;1.03;;;;;;;-7.43;76.63;95966.33;1759333;81;21027;-76
2022/02/04 06:10:26;;;;;;;1.07;0.70;;;;;;;-7.42;76.44;95957.83;1759854;81;21034;-74
2022/02/04 06:23:14;;;;;;;30.33;14.20;;;;;;;-6.78;76.44;95955.28;1774159;80;20978;-73
2022/02/04 06:25:41;;;;;;;5.43;2.57;;;;;;;-6.65;75.53;95951.30;1774132;81;21054;-73
2022/02/04 06:28:08;;;;;;;4.80;1.80;;;;;;;-6.63;74.70;95957.38;1773955;80;21479;-73
2022/02/04 06:30:35;;;;;;;25.30;11.23;;;;;;;-6.74;74.96;95959.79;1773980;81;20990;-74
2022/02/04 06:33:02;;;;;;;51.30;24.50;;;;;;;-6.73;74.42;95957.69;1774162;81;21029;-74
2022/02/04 06:35:31;;;;;;;60.33;24.70;;;;;;;-6.80;74.20;95962.05;1754637;81;20947;-73
2022/02/04 06:37:58;;;;;;;70.33;31.20;;;;;;;-6.85;74.57;95959.64;1774186;80;20975;-73
2022/02/04 06:40:25;;;;;;;5.93;2.50;;;;;;;-6.87;75.11;95957.38;1774310;80;21022;-76
2022/02/04 06:42:51;;;;;;;21.87;9.73;;;;;;;-6.66;75.91;95960.19;1774074;80;21007;-73
2022/02/04 06:45:18;;;;;;;61.67;26.10;;;;;;;-6.56;75.27;95958.59;1774292;80;21492;-74
2022/02/04 06:47:46;;;;;;;8.20;2.10;;;;;;;-6.51;74.84;95957.55;1774173;80;21045;-74
2022/02/04 06:50:13;;;;;;;0.97;0.70;;;;;;;-6.42;74.91;95964.45;1774279;80;21484;-74
2022/02/04 06:52:39;;;;;;;3.60;1.83;;;;;;;-6.31;75.53;95971.02;1774022;80;21019;-74
2022/02/04 06:55:07;;;;;;;8.70;3.90;;;;;;;-6.25;74.84;95965.30;1774308;80;21492;-72
2022/02/04 06:57:33;;;;;;;19.43;9.30;;;;;;;-6.27;74.77;95962.67;1774054;80;21013;-84
2022/02/04 07:00:00;;;;;;;13.20;6.40;;;;;;;-6.21;74.54;95969.39;1772496;80;21021;-76
2022/02/04 07:02:27;;;;;;;20.10;10.40;;;;;;;-6.13;74.52;95963.36;1772706;81;21511;-72
2022/02/04 07:04:54;;;;;;;11.67;5.40;;;;;;;-6.14;74.45;95966.34;1779629;80;21092;-73
2022/02/04 07:07:20;;;;;;;37.23;20.80;;;;;;;-6.02;74.80;95950.67;1781240;79;21471;-74
2022/02/04 07:09:55;;;;;;;40.97;20.40;;;;;;;-5.80;75.07;95952.56;1765709;79;21047;-72
2022/02/04 07:19:50;;;;;;;33.10;17.77;;;;;;;-5.59;72.94;95941.19;1768560;79;21026;-73
2022/02/04 07:22:26;;;;;;;32.17;15.83;;;;;;;-5.42;73.26;95949.69;1816453;79;20955;-74
2022/02/04 07:24:56;;;;;;;23.37;11.67;;;;;;;-5.35;72.16;95944.03;1785371;79;20960;-72
2022/02/04 07:27:24;;;;;;;26.93;14.70;;;;;;;-5.31;72.31;95934.38;1817025;78;21006;-76
2022/02/04 07:29:52;;;;;;;31.07;16.00;;;;;;;-5.17;72.46;95936.30;1816731;78;20991;-75
2022/02/04 07:42:59;;;;;;;61.83;27.33;;;;;;;-4.31;70.76;95928.98;1825464;78;20947;-74
2022/02/04 07:45:25;;;;;;;43.23;21.57;;;;;;;-4.25;70.45;95936.58;1824561;78;21036;-75
2022/02/04 07:47:52;;;;;;;67.47;30.93;;;;;;;-4.18;69.77;95929.59;1825498;78;20987;-72
2022/02/04 07:50:21;;;;;;;56.97;27.23;;;;;;;-4.04;69.70;95925.02;1825202;78;21001;-71
2022/02/04 07:52:52;;;;;;;29.73;14.30;;;;;;;-4.02;69.55;95929.84;1824656;78;20982;-72
2022/02/04 07:55:20;;;;;;;60.63;28.60;;;;;;;-4.01;69.72;95927.72;1823343;79;20982;-70
2022/02/04 07:57:46;;;;;;;48.20;22.57;;;;;;;-3.95;70.27;95931.86;1824076;79;21006;-73
2022/02/04 08:00:16;;;;;;;38.97;19.50;;;;;;;-3.78;69.96;95927.80;1824132;79;21018;-71
2022/02/04 08:02:45;;;;;;;46.97;24.37;;;;;;;-3.57;69.43;95920.95;1822577;79;21038;-78
2022/02/04 08:05:16;;;;;;;39.23;20.00;;;;;;;-3.38;68.89;95927.72;1823233;79;21006;-77
2022/02/04 08:13:15;;;;;;;24.47;14.10;;;;;;;-2.72;66.71;95925.52;1822914;79;21566;-73
2022/02/04 08:18:22;;;;;;;45.57;24.73;;;;;;;-2.62;66.70;95914.31;1822658;79;21046;-74
2022/02/04 08:20:56;;;;;;;62.63;35.87;;;;;;;-2.53;66.47;95906.42;1818820;79;21015;-75
2022/02/04 08:31:19;;;;;;;26.87;16.70;;;;;;;-1.36;65.15;95904.42;1824143;79;21036;-80
2022/02/04 08:38:58;;;;;;;13.60;8.87;;;;;;;-0.58;60.95;95896.86;1823981;79;20975;-78
2022/02/04 08:52:41;;;;;;;21.07;13.17;;;;;;;-0.11;59.84;95900.31;1823832;79;20999;-76
2022/02/04 08:54:21;;;;;;;15.87;8.33;;;;;;;0.09;58.78;95900.84;1775863;79;21129;-78
2022/02/04 08:56:54;;;;;;;10.57;6.00;;;;;;;0.09;58.58;95896.95;1783493;80;21069;-77
2022/02/04 08:59:26;;;;;;;8.50;4.97;;;;;;;0.34;59.17;95895.45;1784725;80;20987;-80
2022/02/04 09:01:54;;;;;;;10.43;4.00;;;;;;;0.82;56.77;95894.89;1783675;80;21030;-76
2022/02/04 09:04:18;;;;;;;7.17;3.20;;;;;;;1.26;58.33;95898.05;1784980;80;21006;-78
2022/02/04 09:06:52;;;;;;;4.90;2.50;;;;;;;1.71;57.71;95894.66;1784245;80;21058;-77
2022/02/04 09:09:24;;;;;;;7.07;3.60;;;;;;;1.85;50.68;95886.72;1783902;80;20979;-78
2022/02/04 09:11:46;;;;;;;10.83;4.53;;;;;;;1.57;50.66;95895.70;1784892;80;20998;-74
2022/02/04 09:22:21;;;;;;;14.07;5.13;;;;;;;2.25;50.06;95878.80;1796415;80;21455;-69
2022/02/04 09:24:46;;;;;;;14.03;5.40;;;;;;;2.43;50.70;95870.43;1796017;80;20983;-72
2022/02/04 09:27:14;;;;;;;17.30;3.83;;;;;;;2.64;49.58;95872.08;1799271;78;21025;-76
2022/02/04 09:29:40;;;;;;;3.60;2.27;;;;;;;2.79;49.59;95868.84;1757247;81;21042;-72
2022/02/04 09:32:07;;;;;;;11.60;2.20;;;;;;;2.84;49.50;95864.58;1750142;82;21082;-73
2022/02/04 09:34:34;;;;;;;15.57;8.77;;;;;;;2.88;49.58;95868.13;1771687;81;21606;-71
2022/02/04 09:37:01;;;;;;;71.63;34.67;;;;;;;2.85;49.14;95865.05;1771322;81;21104;-74
2022/02/04 09:39:27;;;;;;;110.77;64.60;;;;;;;2.77;48.32;95863.63;1782210;80;22225;-77
2022/02/04 09:41:55;;;;;;;17.20;10.00;;;;;;;2.76;48.55;95859.25;1772082;81;20990;-71
2022/02/04 09:44:21;;;;;;;18.57;4.83;;;;;;;2.75;47.33;95864.45;1781516;80;21097;-72
2022/02/04 09:46:48;;;;;;;23.23;9.83;;;;;;;2.66;46.73;95861.26;1771279;81;21090;-73
2022/02/04 09:49:27;;;;;;;23.47;5.40;;;;;;;2.66;46.77;95857.78;1771676;81;21084;-73
2022/02/04 10:17:23;;;;;;;11.50;5.17;;;;;;;3.79;43.31;95818.03;1821588;78;21006;-76
2022/02/04 10:19:27;;;;;;;8.40;4.50;;;;;;;3.86;44.16;95819.42;1770048;80;21042;-75
2022/02/04 10:22:01;;;;;;;11.27;4.40;;;;;;;3.79;43.58;95817.60;1744984;81;20998;-76
2022/02/04 10:24:30;;;;;;;14.10;3.30;;;;;;;3.80;43.84;95823.69;1759139;81;21571;-76
2022/02/04 10:27:12;;;;;;;14.73;2.37;;;;;;;3.78;44.55;95823.69;1759539;81;21007;-75
2022/02/04 10:29:42;;;;;;;11.37;2.93;;;;;;;3.76;45.18;95825.84;1759680;81;21073;-76
2022/02/04 10:32:09;;;;;;;14.80;3.70;;;;;;;3.79;44.77;95816.30;1759482;81;20995;-76
2022/02/04 10:34:38;;;;;;;10.13;2.50;;;;;;;3.87;44.84;95815.95;1759702;81;21085;-75
2022/02/04 10:37:17;;;;;;;3.67;2.53;;;;;;;4.02;44.90;95816.97;1759990;81;20991;-75
2022/02/04 10:39:58;;;;;;;4.67;2.60;;;;;;;4.16;44.91;95817.09;1759615;81;21027;-75
2022/02/04 10:47:51;;;;;;;9.27;4.90;;;;;;;4.06;44.21;95809.63;1759382;81;21567;-75
2022/02/04 10:50:17;;;;;;;12.97;7.53;;;;;;;4.09;43.91;95814.44;1755006;81;21081;-75
2022/02/04 10:59:11;;;;;;;14.63;7.20;;;;;;;3.87;43.15;95800.72;1694163;82;21071;-76
2022/02/04 11:00:58;;;;;;;24.00;12.07;;;;;;;3.86;42.97;95794.63;1724447;82;21041;-72
2022/02/04 11:03:13;;;;;;;26.57;11.63;;;;;;;3.84;43.77;95793.73;1751738;81;21074;-72
2022/02/04 11:35:58;;;;;;;9.20;6.63;;;;;;;5.68;42.18;95737.00;1790221;80;21512;-75
2022/02/04 11:51:15;;;;;;;24.17;5.53;;;;;;;5.65;41.43;95740.48;1790226;80;20991;-75
2022/02/04 11:52:53;;;;;;;15.77;6.43;;;;;;;5.62;42.58;95728.27;1748539;80;21082;-75
2022/02/04 11:55:31;;;;;;;18.77;9.87;;;;;;;5.68;42.82;95722.16;1790195;80;21496;-75
2022/02/04 11:58:43;;;;;;;15.00;9.90;;;;;;;5.59;42.00;95722.12;1790075;80;20982;-75
2022/02/04 12:01:11;;;;;;;13.10;7.67;;;;;;;5.50;41.54;95715.58;1778570;80;21058;-75
2022/02/04 12:03:39;;;;;;;13.73;6.70;;;;;;;5.61;42.37;95706.86;1790019;80;21002;-75
2022/02/04 12:06:05;;;;;;;12.27;6.13;;;;;;;5.94;42.26;95708.27;1789791;80;21026;-75
2022/02/04 12:08:32;;;;;;;9.33;4.90;;;;;;;6.19;40.39;95705.23;1759826;80;20954;-76
2022/02/04 12:11:06;;;;;;;5.77;4.20;;;;;;;6.24;40.67;95700.42;1790185;80;21029;-75
2022/02/04 12:13:38;;;;;;;6.10;4.00;;;;;;;6.39;40.77;95701.30;1790030;80;21050;-76
2022/02/04 12:16:07;;;;;;;6.27;4.23;;;;;;;6.78;41.13;95692.52;1785537;80;21512;-75
2022/02/04 12:18:41;;;;;;;6.67;3.90;;;;;;;6.85;40.18;95695.53;1783277;80;20979;-75
2022/02/04 12:21:09;;;;;;;;;;;;;;;6.86;39.33;95689.42;1784507;80;21520;-75
2022/02/04 12:23:44;;;;;;;6.10;4.03;;;;;;;6.80;39.13;95695.98;1758831;80;20123;-75
2022/02/04 12:26:21;;;;;;;16.37;3.77;;;;;;;6.65;38.59;95696.91;1781940;80;21483;-75
2022/02/04 12:29:03;;;;;;;11.93;3.57;;;;;;;6.84;37.35;95696.42;1781841;80;21038;-76
2022/02/04 12:31:32;;;;;;;5.30;3.20;;;;;;;7.67;37.95;95688.20;1780656;80;21026;-75
2022/02/04 12:34:08;;;;;;;8.37;3.20;;;;;;;7.98;35.94;95689.31;1781558;80;20974;-75
2022/02/04 12:36:58;;;;;;;7.23;3.60;;;;;;;8.18;34.76;95685.23;1781796;80;20979;-75
2022/02/04 12:39:31;;;;;;;6.27;4.07;;;;;;;7.97;35.25;95686.27;1781296;80;21461;-75
2022/02/04 12:42:02;;;;;;;10.27;4.23;;;;;;;7.66;35.68;95686.47;1780026;80;20983;-75
2022/02/04 12:44:35;;;;;;;6.20;3.73;;;;;;;7.24;36.54;95684.48;1781848;80;21019;-75
2022/02/04 12:47:24;;;;;;;8.25;5.33;;;;;;;7.02;38.04;95686.75;1781978;80;21010;-75
2022/02/04 12:49:56;;;;;;;5.93;4.43;;;;;;;6.75;38.34;95681.14;1781694;80;20979;-75
2022/02/04 12:52:42;;;;;;;8.17;5.27;;;;;;;6.58;37.52;95678.58;1782006;80;21003;-75
2022/02/04 12:55:09;;;;;;;13.93;7.27;;;;;;;6.42;39.16;95677.26;1780136;80;21492;-75
2022/02/04 12:57:57;;;;;;;13.43;7.37;;;;;;;6.44;38.43;95671.58;1781938;80;21465;-75
2022/02/04 13:11:05;;;;;;;12.95;9.68;;;;;;;10.88;31.85;95630.28;1658376;86;21047;-73
2022/02/04 13:13:45;;;;;;;13.25;9.65;;;;;;;11.02;31.36;95629.58;1722945;80;20995;-73
2022/02/04 13:16:06;;;;;;;;;;;;;;;10.65;31.75;95627.22;1783056;80;21517;-73
2022/02/04 13:18:35;;;;;;;18.32;11.57;;;;;;;9.91;31.33;95631.93;1781677;80;20096;-73
2022/02/04 13:21:02;;;;;;;14.38;10.25;;;;;;;9.44;32.34;95625.58;1781959;80;21003;-73
2022/02/04 13:23:32;;;;;;;14.18;9.75;;;;;;;8.68;33.14;95635.28;1781385;80;21486;-72
2022/02/04 13:26:05;;;;;;;11.87;8.80;;;;;;;8.07;34.81;95635.39;1781853;80;20995;-73
2022/02/04 13:28:41;;;;;;;13.53;9.35;;;;;;;7.56;36.51;95640.14;1781920;80;21008;-72
2022/02/04 13:31:13;;;;;;;15.03;9.87;;;;;;;7.50;36.73;95640.16;1781833;80;21027;-73
2022/02/04 13:33:44;;;;;;;17.40;9.35;;;;;;;7.79;37.10;95636.91;1781921;80;21099;-73
2022/02/04 13:39:11;;;;;;;18.55;11.80;;;;;;;10.42;33.96;95607.84;1782011;80;21485;-73
2022/02/04 13:50:26;;;;;;;33.38;17.75;;;;;;;12.58;30.05;95596.52;1781265;80;20164;-74
2022/02/04 13:53:03;;;;;;;14.70;9.48;;;;;;;12.74;27.68;95591.21;1780241;80;21031;-73
2022/02/04 13:56:12;;;;;;;16.15;11.88;;;;;;;12.44;29.32;95590.24;1781250;80;20999;-73
2022/02/04 14:01:28;;;;;;;12.25;8.55;;;;;;;10.44;30.62;95599.47;1781927;80;21026;-73
2022/02/04 14:03:52;;;;;;;35.78;25.57;;;;;;;9.74;32.18;95608.92;1779986;80;21031;-73
2022/02/04 14:06:24;;;;;;;57.17;36.03;;;;;;;8.75;33.45;95611.11;1781828;80;20982;-73
2022/02/04 14:09:05;;;;;;;29.32;18.82;;;;;;;8.30;34.69;95612.84;1779876;80;21015;-73
2022/02/04 14:11:42;;;;;;;30.27;18.37;;;;;;;7.25;37.89;95610.55;1781401;80;21018;-73
2022/02/04 14:14:26;;;;;;;31.33;20.53;;;;;;;6.74;38.79;95619.96;1781971;80;21066;-72
2022/02/04 14:17:01;;;;;;;17.33;11.20;;;;;;;6.01;40.08;95613.13;1782131;80;20955;-72
2022/02/04 14:19:28;;;;;;;19.77;11.80;;;;;;;5.49;41.14;95612.62;1782555;80;21808;-72
2022/02/04 14:21:57;;;;;;;41.90;24.37;;;;;;;4.78;44.35;95620.71;1783231;80;21469;-72
2022/02/04 14:24:23;;;;;;;25.23;13.63;;;;;;;4.10;47.55;95624.69;1783083;80;21493;-72
2022/02/04 14:26:52;;;;;;;21.53;12.47;;;;;;;3.52;50.12;95628.14;1783125;80;20963;-72
2022/02/04 14:30:00;;;;;;;18.03;10.97;;;;;;;3.07;49.81;95633.34;1783133;80;20998;-72
2022/02/04 14:32:10;;;;;;;15.87;10.00;;;;;;;2.70;52.01;95633.80;1766710;80;21022;-75
2022/02/04 14:34:58;;;;;;;17.97;9.90;;;;;;;2.32;54.81;95641.13;1781656;80;21019;-74
2022/02/04 14:53:39;;;;;;;16.37;9.57;;;;;;;1.02;54.84;95645.92;1782972;80;21512;-73
2022/02/04 14:59:02;;;;;;;16.60;7.80;;;;;;;0.88;54.86;95634.81;1783110;80;20990;-73
2022/02/04 15:01:23;;;;;;;14.50;8.63;;;;;;;0.61;57.36;95643.83;1779202;80;21026;-73
2022/02/04 15:04:01;;;;;;;14.47;8.60;;;;;;;0.45;56.56;95638.72;1782459;80;21093;-73
2022/02/04 15:06:39;;;;;;;16.60;9.47;;;;;;;0.37;56.27;95634.67;1780757;80;21011;-73
2022/02/04 15:08:52;;;;;;;16.03;9.30;;;;;;;0.38;56.16;95636.44;1776872;80;21457;-73
2022/02/04 15:11:20;;;;;;;14.23;9.47;;;;;;;0.32;56.58;95634.13;1783008;80;21006;-73
2022/02/04 15:13:48;;;;;;;15.00;7.70;;;;;;;0.20;57.67;95642.51;1783148;80;20999;-73
2022/02/04 15:16:15;;;;;;;15.77;10.30;;;;;;;-0.03;59.20;95630.33;1782877;80;21054;-73
2022/02/04 15:18:43;;;;;;;16.67;9.63;;;;;;;-0.11;58.11;95640.53;1782690;80;21073;-73
2022/02/04 15:21:16;;;;;;;17.57;9.57;;;;;;;-0.18;58.35;95636.46;1782929;80;21485;-73
2022/02/04 15:23:47;;;;;;;17.33;9.37;;;;;;;-0.23;58.05;95641.14;1782672;80;20968;-72
2022/02/04 15:26:16;;;;;;;15.70;9.40;;;;;;;-0.26;57.90;95647.53;1783026;80;21014;-72
2022/02/04 15:28:58;;;;;;;13.67;8.30;;;;;;;-0.38;58.66;95642.05;1782886;80;21033;-73
2022/02/04 15:33:49;;;;;;;16.60;9.33;;;;;;;-0.77;59.82;95638.06;1782773;80;21551;-74
2022/02/04 15:36:23;;;;;;;12.00;7.10;;;;;;;-0.95;60.54;95636.75;1782836;80;21468;-74
2022/02/04 15:38:45;;;;;;;17.57;9.03;;;;;;;-1.09;61.83;95643.27;1781696;80;21023;-74
2022/02/04 15:41:15;;;;;;;13.40;8.13;;;;;;;-1.21;61.43;95642.55;1782929;80;20994;-74
2022/02/04 15:43:41;;;;;;;16.50;8.63;;;;;;;-1.26;62.45;95644.52;1782615;80;21047;-74
2022/02/04 15:57:02;;;;;;;8.60;5.50;;;;;;;-1.64;63.19;95650.41;1782842;80;21043;-74
2022/02/04 16:04:45;;;;;;;12.33;6.67;;;;;;;-1.91;64.65;95654.77;1782617;80;21019;-74
2022/02/04 16:07:13;;;;;;;17.20;9.97;;;;;;;-1.97;64.49;95657.63;1782911;80;20983;-73
2022/02/04 16:09:40;;;;;;;14.87;6.80;;;;;;;-2.10;65.29;95649.43;1782941;80;21055;-74
2022/02/04 16:12:20;;;;;;;17.80;10.07;;;;;;;-2.26;65.52;95647.67;1783045;80;21010;-74
2022/02/04 16:14:49;;;;;;;14.07;8.23;;;;;;;-2.30;66.04;95647.52;1780162;80;21058;-74
2022/02/04 16:19:46;;;;;;;14.57;8.57;;;;;;;-2.38;66.28;95648.99;1781710;80;21577;-74
2022/02/04 16:22:25;;;;;;;24.37;11.90;;;;;;;-2.43;66.78;95644.97;1781296;80;21065;-74
2022/02/04 16:29:58;;;;;;;28.07;11.47;;;;;;;-2.38;65.99;95639.95;1782008;80;21603;-73
2022/02/04 16:32:26;;;;;;;13.67;7.53;;;;;;;-2.45;65.97;95647.91;1781831;80;21472;-73
2022/02/04 16:34:55;;;;;;;16.00;9.23;;;;;;;-2.56;67.03;95638.95;1781659;80;21027;-73
2022/02/04 16:37:38;;;;;;;11.83;7.13;;;;;;;-2.67;66.49;95636.91;1781932;80;20979;-73
2022/02/04 16:40:19;;;;;;;11.10;6.43;;;;;;;-2.69;67.23;95634.67;1781669;80;20963;-73
2022/02/04 16:42:42;;;;;;;12.00;7.70;;;;;;;-2.81;66.79;95635.56;1779882;80;21473;-73
2022/02/04 16:45:09;;;;;;;16.47;8.33;;;;;;;-2.91;68.19;95636.08;1781769;80;21061;-73
2022/02/04 16:47:36;;;;;;;15.80;8.33;;;;;;;-2.92;68.31;95636.92;1781827;80;21536;-73
2022/02/04 16:50:06;;;;;;;14.20;7.83;;;;;;;-2.94;68.62;95629.53;1781708;80;21047;-73
2022/02/04 16:52:33;;;;;;;13.97;7.50;;;;;;;-2.96;69.11;95636.34;1781807;80;20990;-75
2022/02/04 16:54:59;;;;;;;12.80;7.53;;;;;;;-3.05;69.75;95635.22;1781836;80;20983;-73
2022/02/04 16:57:28;;;;;;;14.00;8.33;;;;;;;-3.05;69.25;95640.38;1781792;80;21051;-73
2022/02/04 16:59:59;;;;;;;16.53;7.83;;;;;;;-2.99;69.61;95634.95;1781662;80;21564;-73
2022/02/04 17:02:24;;;;;;;13.73;8.13;;;;;;;-2.93;69.97;95635.15;1781868;80;20967;-73
2022/02/04 17:04:52;;;;;;;14.13;7.60;;;;;;;-2.79;69.14;95632.63;1781754;80;21003;-73
2022/02/04 17:07:23;;;;;;;17.93;10.00;;;;;;;-2.76;69.30;95623.67;1781982;80;20990;-73
2022/02/04 17:09:49;;;;;;;14.60;7.13;;;;;;;-2.80;68.96;95626.11;1781702;80;20967;-73
2022/02/04 17:12:26;;;;;;;13.47;6.83;;;;;;;-2.92;69.35;95626.17;1781994;80;21509;-73
2022/02/04 17:14:45;;;;;;;16.50;8.57;;;;;;;-3.06;69.36;95633.86;1780780;80;20999;-73
2022/02/04 17:17:12;;;;;;;14.63;7.43;;;;;;;-3.01;69.55;95630.15;1782005;80;21015;-73
2022/02/04 17:19:50;;;;;;;15.97;7.73;;;;;;;-3.03;69.75;95629.21;1781631;80;21501;-73
2022/02/04 17:22:12;;;;;;;12.33;8.17;;;;;;;-2.94;69.53;95629.11;1780723;80;21011;-73
2022/02/04 17:24:38;;;;;;;13.97;7.60;;;;;;;-2.90;68.91;95627.11;1782127;80;21042;-73
2022/02/04 17:27:05;;;;;;;11.00;6.43;;;;;;;-2.89;68.93;95629.27;1781910;80;21015;-73
2022/02/04 17:29:32;;;;;;;15.47;9.40;;;;;;;-2.85;68.67;95630.72;1781859;80;21030;-73
2022/02/04 17:31:59;;;;;;;15.60;7.77;;;;;;;-2.79;68.65;95626.16;1782012;80;21062;-73
2022/02/04 17:34:25;;;;;;;16.20;9.70;;;;;;;-2.86;68.82;95627.66;1781918;80;21524;-73
2022/02/04 17:36:52;;;;;;;19.70;12.03;;;;;;;-2.88;69.23;95621.56;1781865;80;20959;-73
2022/02/04 17:39:21;;;;;;;28.17;17.63;;;;;;;-2.84;69.34;95627.72;1782126;80;21452;-74
2022/02/04 17:41:51;;;;;;;18.57;11.90;;;;;;;-2.83;69.22;95616.13;1781662;80;21054;-74
2022/02/04 17:44:19;;;;;;;17.03;9.07;;;;;;;-2.77;68.88;95618.45;1781976;80;21006;-73
2022/02/04 17:46:48;;;;;;;12.73;7.47;;;;;;;-2.71;70.22;95608.34;1781989;80;21062;-74
2022/02/04 17:49:21;;;;;;;17.70;9.63;;;;;;;-2.73;69.69;95613.44;1781724;80;20991;-73